sensor_id;sensor_type;location;lat;lon;timestamp;temperature;humidity
28484;DHT22;15704;48.834;8.736;2024-01-16T00:01:06;11.60;78.10
28484;DHT22;15704;48.834;8.736;2024-01-16T00:03:33;11.60;78.10
28484;DHT22;15704;48.834;8.736;2024-01-16T00:06:03;11.60;78.10
28484;DHT22;15704;48.834;8.736;2024-01-16T00:08:30;11.60;78.10
28484;DHT22;15704;48.834;8.736;2024-01-16T00:10:57;11.60;78.10
28484;DHT22;15704;48.834;8.736;2024-01-16T00:13:24;11.60;78.10
28484;DHT22;15704;48.834;8.736;2024-01-16T00:15:51;11.60;78.10
28484;DHT22;15704;48.834;8.736;2024-01-16T00:18:17;11.60;78.00
28484;DHT22;15704;48.834;8.736;2024-01-16T00:20:45;11.60;78.80
28484;DHT22;15704;48.834;8.736;2024-01-16T00:23:12;11.60;78.10
28484;DHT22;15704;48.834;8.736;2024-01-16T00:25:39;11.60;78.10
28484;DHT22;15704;48.834;8.736;2024-01-16T00:28:06;11.60;78.10
28484;DHT22;15704;48.834;8.736;2024-01-16T00:30:33;11.50;78.10
28484;DHT22;15704;48.834;8.736;2024-01-16T00:33:00;11.60;78.10
28484;DHT22;15704;48.834;8.736;2024-01-16T00:35:27;11.60;78.00
28484;DHT22;15704;48.834;8.736;2024-01-16T00:37:54;11.60;78.10
28484;DHT22;15704;48.834;8.736;2024-01-16T00:40:21;11.60;78.20
28484;DHT22;15704;48.834;8.736;2024-01-16T00:42:47;11.60;78.10
28484;DHT22;15704;48.834;8.736;2024-01-16T00:45:15;11.60;78.10
28484;DHT22;15704;48.834;8.736;2024-01-16T00:47:43;11.60;78.10
28484;DHT22;15704;48.834;8.736;2024-01-16T00:50:11;11.60;78.10
28484;DHT22;15704;48.834;8.736;2024-01-16T00:52:38;11.50;78.10
28484;DHT22;15704;48.834;8.736;2024-01-16T00:55:06;11.60;78.10
28484;DHT22;15704;48.834;8.736;2024-01-16T00:57:33;11.60;78.20
28484;DHT22;15704;48.834;8.736;2024-01-16T00:59:59;11.60;78.10
28484;DHT22;15704;48.834;8.736;2024-01-16T01:02:26;11.60;78.10
28484;DHT22;15704;48.834;8.736;2024-01-16T01:04:53;11.60;78.10
28484;DHT22;15704;48.834;8.736;2024-01-16T01:07:20;11.60;78.10
28484;DHT22;15704;48.834;8.736;2024-01-16T01:09:46;11.60;78.10
28484;DHT22;15704;48.834;8.736;2024-01-16T01:12:13;11.60;78.10
28484;DHT22;15704;48.834;8.736;2024-01-16T01:14:40;11.60;78.10
28484;DHT22;15704;48.834;8.736;2024-01-16T01:17:07;11.60;78.10
28484;DHT22;15704;48.834;8.736;2024-01-16T01:19:34;11.60;78.10
28484;DHT22;15704;48.834;8.736;2024-01-16T01:22:01;11.60;78.10
28484;DHT22;15704;48.834;8.736;2024-01-16T01:24:28;11.60;78.10
28484;DHT22;15704;48.834;8.736;2024-01-16T01:26:54;11.60;78.10
28484;DHT22;15704;48.834;8.736;2024-01-16T01:29:21;11.60;78.10
28484;DHT22;15704;48.834;8.736;2024-01-16T01:31:48;11.60;78.10
28484;DHT22;15704;48.834;8.736;2024-01-16T01:34:18;11.60;78.10
28484;DHT22;15704;48.834;8.736;2024-01-16T01:36:45;11.60;78.10
28484;DHT22;15704;48.834;8.736;2024-01-16T01:39:12;11.60;78.00
28484;DHT22;15704;48.834;8.736;2024-01-16T01:41:39;11.60;78.00
28484;DHT22;15704;48.834;8.736;2024-01-16T01:44:06;11.60;78.10
28484;DHT22;15704;48.834;8.736;2024-01-16T01:46:34;11.60;78.10
28484;DHT22;15704;48.834;8.736;2024-01-16T01:49:03;11.60;78.10
28484;DHT22;15704;48.834;8.736;2024-01-16T01:51:30;11.60;78.10
28484;DHT22;15704;48.834;8.736;2024-01-16T01:53:58;11.60;78.10
28484;DHT22;15704;48.834;8.736;2024-01-16T01:56:28;11.60;78.00
28484;DHT22;15704;48.834;8.736;2024-01-16T01:58:57;11.60;78.10
28484;DHT22;15704;48.834;8.736;2024-01-16T02:01:28;11.60;78.10
28484;DHT22;15704;48.834;8.736;2024-01-16T02:03:56;11.60;78.10
28484;DHT22;15704;48.834;8.736;2024-01-16T02:06:24;11.60;78.10
28484;DHT22;15704;48.834;8.736;2024-01-16T02:08:51;11.60;78.10
28484;DHT22;15704;48.834;8.736;2024-01-16T02:11:21;11.60;78.10
28484;DHT22;15704;48.834;8.736;2024-01-16T02:13:50;11.60;78.10
28484;DHT22;15704;48.834;8.736;2024-01-16T02:16:26;11.60;78.10
28484;DHT22;15704;48.834;8.736;2024-01-16T02:18:53;11.60;78.00
28484;DHT22;15704;48.834;8.736;2024-01-16T02:21:21;11.60;78.00
28484;DHT22;15704;48.834;8.736;2024-01-16T02:23:48;11.60;78.00
28484;DHT22;15704;48.834;8.736;2024-01-16T02:26:17;11.60;78.00
28484;DHT22;15704;48.834;8.736;2024-01-16T02:28:44;11.60;78.10
28484;DHT22;15704;48.834;8.736;2024-01-16T02:31:11;11.60;78.10
28484;DHT22;15704;48.834;8.736;2024-01-16T02:33:37;11.50;78.00
28484;DHT22;15704;48.834;8.736;2024-01-16T02:36:05;11.60;78.10
28484;DHT22;15704;48.834;8.736;2024-01-16T02:38:32;11.60;78.10
28484;DHT22;15704;48.834;8.736;2024-01-16T02:40:58;11.50;78.00
28484;DHT22;15704;48.834;8.736;2024-01-16T02:43:25;11.60;78.10
28484;DHT22;15704;48.834;8.736;2024-01-16T02:45:53;11.60;78.10
28484;DHT22;15704;48.834;8.736;2024-01-16T02:48:20;11.60;78.10
28484;DHT22;15704;48.834;8.736;2024-01-16T02:50:47;11.60;78.10
28484;DHT22;15704;48.834;8.736;2024-01-16T02:53:15;11.60;78.10
28484;DHT22;15704;48.834;8.736;2024-01-16T02:55:41;11.60;78.10
28484;DHT22;15704;48.834;8.736;2024-01-16T02:58:08;11.60;78.00
28484;DHT22;15704;48.834;8.736;2024-01-16T03:00:35;11.60;78.10
28484;DHT22;15704;48.834;8.736;2024-01-16T03:03:02;11.60;78.10
28484;DHT22;15704;48.834;8.736;2024-01-16T03:05:29;11.60;78.10
28484;DHT22;15704;48.834;8.736;2024-01-16T03:07:56;11.60;78.10
28484;DHT22;15704;48.834;8.736;2024-01-16T03:10:22;11.60;78.10
28484;DHT22;15704;48.834;8.736;2024-01-16T03:12:49;11.60;78.10
28484;DHT22;15704;48.834;8.736;2024-01-16T03:15:16;11.60;78.10
28484;DHT22;15704;48.834;8.736;2024-01-16T03:17:43;11.60;78.10
28484;DHT22;15704;48.834;8.736;2024-01-16T03:20:10;11.60;78.10
28484;DHT22;15704;48.834;8.736;2024-01-16T03:22:38;11.60;78.10
28484;DHT22;15704;48.834;8.736;2024-01-16T03:25:07;11.60;78.10
28484;DHT22;15704;48.834;8.736;2024-01-16T03:27:33;11.60;78.10
28484;DHT22;15704;48.834;8.736;2024-01-16T03:30:01;11.60;78.10
28484;DHT22;15704;48.834;8.736;2024-01-16T03:32:29;11.60;78.10
28484;DHT22;15704;48.834;8.736;2024-01-16T03:34:56;11.60;78.10
28484;DHT22;15704;48.834;8.736;2024-01-16T03:37:23;11.60;78.00
28484;DHT22;15704;48.834;8.736;2024-01-16T03:39:49;11.60;78.10
28484;DHT22;15704;48.834;8.736;2024-01-16T03:42:16;11.60;78.10
28484;DHT22;15704;48.834;8.736;2024-01-16T03:44:43;11.60;78.10
28484;DHT22;15704;48.834;8.736;2024-01-16T03:47:10;11.60;78.10
28484;DHT22;15704;48.834;8.736;2024-01-16T03:49:40;11.60;78.10
28484;DHT22;15704;48.834;8.736;2024-01-16T03:52:07;11.60;78.10
28484;DHT22;15704;48.834;8.736;2024-01-16T03:54:33;11.60;78.10
28484;DHT22;15704;48.834;8.736;2024-01-16T03:57:00;11.50;78.00
28484;DHT22;15704;48.834;8.736;2024-01-16T03:59:27;11.50;78.10
28484;DHT22;15704;48.834;8.736;2024-01-16T04:01:54;11.60;78.10
28484;DHT22;15704;48.834;8.736;2024-01-16T04:04:23;11.50;78.10
28484;DHT22;15704;48.834;8.736;2024-01-16T04:06:49;11.60;78.10
28484;DHT22;15704;48.834;8.736;2024-01-16T04:09:16;11.50;78.10
28484;DHT22;15704;48.834;8.736;2024-01-16T04:11:43;11.50;78.10
28484;DHT22;15704;48.834;8.736;2024-01-16T04:14:10;11.50;78.10
28484;DHT22;15704;48.834;8.736;2024-01-16T04:16:37;11.50;78.10
28484;DHT22;15704;48.834;8.736;2024-01-16T04:19:04;11.50;78.00
28484;DHT22;15704;48.834;8.736;2024-01-16T04:21:31;11.50;78.00
28484;DHT22;15704;48.834;8.736;2024-01-16T04:23:58;11.50;78.00
28484;DHT22;15704;48.834;8.736;2024-01-16T04:26:24;11.50;78.00
28484;DHT22;15704;48.834;8.736;2024-01-16T04:28:51;11.50;78.00
28484;DHT22;15704;48.834;8.736;2024-01-16T04:31:19;11.50;78.00
28484;DHT22;15704;48.834;8.736;2024-01-16T04:33:48;11.50;78.00
28484;DHT22;15704;48.834;8.736;2024-01-16T04:36:16;11.50;78.00
28484;DHT22;15704;48.834;8.736;2024-01-16T04:38:43;11.50;78.10
28484;DHT22;15704;48.834;8.736;2024-01-16T04:41:10;11.50;78.00
28484;DHT22;15704;48.834;8.736;2024-01-16T04:43:40;11.50;78.00
28484;DHT22;15704;48.834;8.736;2024-01-16T04:46:06;11.50;78.10
28484;DHT22;15704;48.834;8.736;2024-01-16T04:48:33;11.50;78.00
28484;DHT22;15704;48.834;8.736;2024-01-16T04:51:00;11.50;78.00
28484;DHT22;15704;48.834;8.736;2024-01-16T04:53:27;11.50;78.00
28484;DHT22;15704;48.834;8.736;2024-01-16T04:55:53;11.50;78.00
28484;DHT22;15704;48.834;8.736;2024-01-16T04:58:20;11.50;78.00
28484;DHT22;15704;48.834;8.736;2024-01-16T05:00:49;11.50;78.00
28484;DHT22;15704;48.834;8.736;2024-01-16T05:03:16;11.50;78.00
28484;DHT22;15704;48.834;8.736;2024-01-16T05:05:43;11.50;78.00
28484;DHT22;15704;48.834;8.736;2024-01-16T05:08:10;11.50;78.10
28484;DHT22;15704;48.834;8.736;2024-01-16T05:10:37;11.50;78.10
28484;DHT22;15704;48.834;8.736;2024-01-16T05:13:04;11.50;78.10
28484;DHT22;15704;48.834;8.736;2024-01-16T05:15:30;11.50;78.10
28484;DHT22;15704;48.834;8.736;2024-01-16T05:17:57;11.50;78.00
28484;DHT22;15704;48.834;8.736;2024-01-16T05:20:24;11.50;78.10
28484;DHT22;15704;48.834;8.736;2024-01-16T05:22:51;11.50;78.10
28484;DHT22;15704;48.834;8.736;2024-01-16T05:25:18;11.50;78.00
28484;DHT22;15704;48.834;8.736;2024-01-16T05:27:46;11.50;78.10
28484;DHT22;15704;48.834;8.736;2024-01-16T05:30:13;11.50;78.10
28484;DHT22;15704;48.834;8.736;2024-01-16T05:32:40;11.50;78.10
28484;DHT22;15704;48.834;8.736;2024-01-16T05:35:08;11.40;78.00
28484;DHT22;15704;48.834;8.736;2024-01-16T05:37:36;11.50;78.10
28484;DHT22;15704;48.834;8.736;2024-01-16T05:40:03;11.50;78.10
28484;DHT22;15704;48.834;8.736;2024-01-16T05:42:30;11.50;78.00
28484;DHT22;15704;48.834;8.736;2024-01-16T05:44:57;11.50;78.10
28484;DHT22;15704;48.834;8.736;2024-01-16T05:47:26;11.40;78.00
28484;DHT22;15704;48.834;8.736;2024-01-16T05:49:54;11.40;78.00
28484;DHT22;15704;48.834;8.736;2024-01-16T05:52:22;11.50;78.10
28484;DHT22;15704;48.834;8.736;2024-01-16T05:54:49;11.50;78.10
28484;DHT22;15704;48.834;8.736;2024-01-16T05:57:16;11.50;78.10
28484;DHT22;15704;48.834;8.736;2024-01-16T05:59:43;11.50;78.10
28484;DHT22;15704;48.834;8.736;2024-01-16T06:02:10;11.50;78.00
28484;DHT22;15704;48.834;8.736;2024-01-16T06:04:37;11.50;78.00
28484;DHT22;15704;48.834;8.736;2024-01-16T06:07:04;11.50;78.00
28484;DHT22;15704;48.834;8.736;2024-01-16T06:09:37;11.40;78.00
28484;DHT22;15704;48.834;8.736;2024-01-16T06:12:05;11.40;78.00
28484;DHT22;15704;48.834;8.736;2024-01-16T06:14:33;11.40;78.00
28484;DHT22;15704;48.834;8.736;2024-01-16T06:17:01;11.40;78.00
28484;DHT22;15704;48.834;8.736;2024-01-16T06:19:27;11.50;78.10
28484;DHT22;15704;48.834;8.736;2024-01-16T06:21:54;11.40;78.00
28484;DHT22;15704;48.834;8.736;2024-01-16T06:24:21;11.40;78.00
28484;DHT22;15704;48.834;8.736;2024-01-16T06:26:48;11.40;78.00
28484;DHT22;15704;48.834;8.736;2024-01-16T06:29:15;11.40;78.00
28484;DHT22;15704;48.834;8.736;2024-01-16T06:31:57;11.40;78.00
28484;DHT22;15704;48.834;8.736;2024-01-16T06:34:23;11.40;78.00
28484;DHT22;15704;48.834;8.736;2024-01-16T06:36:50;11.40;78.00
28484;DHT22;15704;48.834;8.736;2024-01-16T06:39:17;11.40;78.10
28484;DHT22;15704;48.834;8.736;2024-01-16T06:41:44;11.40;78.10
28484;DHT22;15704;48.834;8.736;2024-01-16T06:44:11;11.40;78.80
28484;DHT22;15704;48.834;8.736;2024-01-16T06:46:38;11.40;78.10
28484;DHT22;15704;48.834;8.736;2024-01-16T06:49:05;11.40;78.00
28484;DHT22;15704;48.834;8.736;2024-01-16T06:51:32;11.40;78.00
28484;DHT22;15704;48.834;8.736;2024-01-16T06:53:58;11.40;78.00
28484;DHT22;15704;48.834;8.736;2024-01-16T06:56:25;11.40;78.00
28484;DHT22;15704;48.834;8.736;2024-01-16T06:58:52;11.40;78.00
28484;DHT22;15704;48.834;8.736;2024-01-16T07:01:19;11.40;78.00
28484;DHT22;15704;48.834;8.736;2024-01-16T07:03:46;11.40;78.00
28484;DHT22;15704;48.834;8.736;2024-01-16T07:06:12;11.40;78.00
28484;DHT22;15704;48.834;8.736;2024-01-16T07:08:39;11.40;78.00
28484;DHT22;15704;48.834;8.736;2024-01-16T07:11:07;11.40;78.80
28484;DHT22;15704;48.834;8.736;2024-01-16T07:13:35;11.40;78.10
28484;DHT22;15704;48.834;8.736;2024-01-16T07:16:02;11.40;78.00
28484;DHT22;15704;48.834;8.736;2024-01-16T07:18:29;11.40;78.00
28484;DHT22;15704;48.834;8.736;2024-01-16T07:20:56;11.40;78.00
28484;DHT22;15704;48.834;8.736;2024-01-16T07:23:23;11.40;78.00
28484;DHT22;15704;48.834;8.736;2024-01-16T07:25:50;11.40;78.00
28484;DHT22;15704;48.834;8.736;2024-01-16T07:28:17;11.40;78.00
28484;DHT22;15704;48.834;8.736;2024-01-16T07:30:43;11.40;78.00
28484;DHT22;15704;48.834;8.736;2024-01-16T07:33:10;11.40;78.00
28484;DHT22;15704;48.834;8.736;2024-01-16T07:35:38;11.40;78.00
28484;DHT22;15704;48.834;8.736;2024-01-16T07:38:07;11.40;78.00
28484;DHT22;15704;48.834;8.736;2024-01-16T07:40:35;11.40;78.10
28484;DHT22;15704;48.834;8.736;2024-01-16T07:43:01;11.40;78.00
28484;DHT22;15704;48.834;8.736;2024-01-16T07:45:28;11.40;78.00
28484;DHT22;15704;48.834;8.736;2024-01-16T07:47:56;11.40;78.00
28484;DHT22;15704;48.834;8.736;2024-01-16T07:50:23;11.40;78.00
28484;DHT22;15704;48.834;8.736;2024-01-16T07:52:50;11.40;78.00
28484;DHT22;15704;48.834;8.736;2024-01-16T07:55:20;11.40;78.00
28484;DHT22;15704;48.834;8.736;2024-01-16T07:57:50;11.40;78.00
28484;DHT22;15704;48.834;8.736;2024-01-16T08:00:17;11.40;78.00
28484;DHT22;15704;48.834;8.736;2024-01-16T08:02:44;11.40;78.00
28484;DHT22;15704;48.834;8.736;2024-01-16T08:05:14;11.30;77.90
28484;DHT22;15704;48.834;8.736;2024-01-16T08:07:44;11.40;78.00
28484;DHT22;15704;48.834;8.736;2024-01-16T08:10:10;11.40;78.00
28484;DHT22;15704;48.834;8.736;2024-01-16T08:12:37;11.40;77.90
28484;DHT22;15704;48.834;8.736;2024-01-16T08:15:05;11.40;77.90
28484;DHT22;15704;48.834;8.736;2024-01-16T08:17:34;11.40;78.00
28484;DHT22;15704;48.834;8.736;2024-01-16T08:20:03;11.40;77.90
28484;DHT22;15704;48.834;8.736;2024-01-16T08:22:30;11.40;77.90
28484;DHT22;15704;48.834;8.736;2024-01-16T08:24:56;11.40;77.80
28484;DHT22;15704;48.834;8.736;2024-01-16T08:27:23;11.40;77.80
28484;DHT22;15704;48.834;8.736;2024-01-16T08:29:50;11.40;77.80
28484;DHT22;15704;48.834;8.736;2024-01-16T08:32:17;11.40;77.80
28484;DHT22;15704;48.834;8.736;2024-01-16T08:34:44;11.40;77.90
28484;DHT22;15704;48.834;8.736;2024-01-16T08:37:11;11.40;77.80
28484;DHT22;15704;48.834;8.736;2024-01-16T08:39:37;11.40;77.90
28484;DHT22;15704;48.834;8.736;2024-01-16T08:42:05;11.40;78.00
28484;DHT22;15704;48.834;8.736;2024-01-16T08:44:31;11.40;77.90
28484;DHT22;15704;48.834;8.736;2024-01-16T08:46:58;11.40;77.90
28484;DHT22;15704;48.834;8.736;2024-01-16T08:49:26;11.40;77.80
28484;DHT22;15704;48.834;8.736;2024-01-16T08:51:53;11.40;77.80
28484;DHT22;15704;48.834;8.736;2024-01-16T08:54:20;11.40;77.80
28484;DHT22;15704;48.834;8.736;2024-01-16T08:56:49;11.40;77.80
28484;DHT22;15704;48.834;8.736;2024-01-16T08:59:16;11.40;77.80
28484;DHT22;15704;48.834;8.736;2024-01-16T09:01:45;11.40;77.70
28484;DHT22;15704;48.834;8.736;2024-01-16T09:04:12;11.40;77.60
28484;DHT22;15704;48.834;8.736;2024-01-16T09:06:39;11.50;77.60
28484;DHT22;15704;48.834;8.736;2024-01-16T09:09:06;11.50;77.60
28484;DHT22;15704;48.834;8.736;2024-01-16T09:11:33;11.50;77.50
28484;DHT22;15704;48.834;8.736;2024-01-16T09:14:00;11.50;77.50
28484;DHT22;15704;48.834;8.736;2024-01-16T09:16:30;11.50;77.30
28484;DHT22;15704;48.834;8.736;2024-01-16T09:18:59;11.60;77.30
28484;DHT22;15704;48.834;8.736;2024-01-16T09:21:26;11.60;77.30
28484;DHT22;15704;48.834;8.736;2024-01-16T09:23:53;11.60;77.20
28484;DHT22;15704;48.834;8.736;2024-01-16T09:26:20;11.60;77.20
28484;DHT22;15704;48.834;8.736;2024-01-16T09:28:47;11.60;77.10
28484;DHT22;15704;48.834;8.736;2024-01-16T09:31:15;11.70;77.10
28484;DHT22;15704;48.834;8.736;2024-01-16T09:33:42;11.70;77.10
28484;DHT22;15704;48.834;8.736;2024-01-16T09:36:10;11.70;77.00
28484;DHT22;15704;48.834;8.736;2024-01-16T09:38:37;11.70;77.00
28484;DHT22;15704;48.834;8.736;2024-01-16T09:41:04;11.70;77.00
28484;DHT22;15704;48.834;8.736;2024-01-16T09:43:31;11.70;76.90
28484;DHT22;15704;48.834;8.736;2024-01-16T09:46:00;11.70;76.90
28484;DHT22;15704;48.834;8.736;2024-01-16T09:48:30;11.70;76.90
28484;DHT22;15704;48.834;8.736;2024-01-16T09:50:58;11.80;76.90
28484;DHT22;15704;48.834;8.736;2024-01-16T09:53:26;11.80;77.70
28484;DHT22;15704;48.834;8.736;2024-01-16T09:55:54;11.80;76.80
28484;DHT22;15704;48.834;8.736;2024-01-16T09:58:25;11.70;76.80
28484;DHT22;15704;48.834;8.736;2024-01-16T10:00:55;11.80;76.80
28484;DHT22;15704;48.834;8.736;2024-01-16T10:03:23;11.80;76.80
28484;DHT22;15704;48.834;8.736;2024-01-16T10:05:50;11.80;76.80
28484;DHT22;15704;48.834;8.736;2024-01-16T10:08:17;11.80;76.80
28484;DHT22;15704;48.834;8.736;2024-01-16T10:10:48;11.80;76.70
28484;DHT22;15704;48.834;8.736;2024-01-16T10:13:17;11.80;76.70
28484;DHT22;15704;48.834;8.736;2024-01-16T10:15:44;11.90;76.70
28484;DHT22;15704;48.834;8.736;2024-01-16T10:18:27;11.80;76.60
28484;DHT22;15704;48.834;8.736;2024-01-16T10:20:54;11.80;76.60
28484;DHT22;15704;48.834;8.736;2024-01-16T10:23:23;11.80;76.60
28484;DHT22;15704;48.834;8.736;2024-01-16T10:26:19;11.90;76.70
28484;DHT22;15704;48.834;8.736;2024-01-16T10:28:47;11.90;76.70
28484;DHT22;15704;48.834;8.736;2024-01-16T10:31:14;11.80;76.80
28484;DHT22;15704;48.834;8.736;2024-01-16T10:33:41;11.80;76.80
28484;DHT22;15704;48.834;8.736;2024-01-16T10:36:13;11.80;76.80
28484;DHT22;15704;48.834;8.736;2024-01-16T10:38:42;11.80;76.80
28484;DHT22;15704;48.834;8.736;2024-01-16T10:41:17;11.80;76.80
28484;DHT22;15704;48.834;8.736;2024-01-16T10:43:44;11.80;76.80
28484;DHT22;15704;48.834;8.736;2024-01-16T10:46:17;11.80;76.80
28484;DHT22;15704;48.834;8.736;2024-01-16T10:49:00;11.80;76.80
28484;DHT22;15704;48.834;8.736;2024-01-16T10:51:28;11.80;76.80
28484;DHT22;15704;48.834;8.736;2024-01-16T10:54:05;11.80;76.90
28484;DHT22;15704;48.834;8.736;2024-01-16T10:56:35;11.80;76.90
28484;DHT22;15704;48.834;8.736;2024-01-16T11:01:49;11.80;76.80
28484;DHT22;15704;48.834;8.736;2024-01-16T11:04:20;11.80;76.90
28484;DHT22;15704;48.834;8.736;2024-01-16T11:06:47;11.80;76.90
28484;DHT22;15704;48.834;8.736;2024-01-16T11:09:14;11.80;77.00
28484;DHT22;15704;48.834;8.736;2024-01-16T11:11:44;11.80;76.90
28484;DHT22;15704;48.834;8.736;2024-01-16T11:14:13;11.80;77.00
28484;DHT22;15704;48.834;8.736;2024-01-16T11:16:40;11.80;76.80
28484;DHT22;15704;48.834;8.736;2024-01-16T11:19:10;11.80;76.90
28484;DHT22;15704;48.834;8.736;2024-01-16T11:21:58;11.90;76.90
28484;DHT22;15704;48.834;8.736;2024-01-16T11:24:29;11.80;77.00
28484;DHT22;15704;48.834;8.736;2024-01-16T11:26:56;11.80;77.00
28484;DHT22;15704;48.834;8.736;2024-01-16T11:31:54;11.80;76.90
28484;DHT22;15704;48.834;8.736;2024-01-16T11:37:11;11.80;76.90
28484;DHT22;15704;48.834;8.736;2024-01-16T11:39:39;11.80;76.90
28484;DHT22;15704;48.834;8.736;2024-01-16T11:42:07;11.80;76.90
28484;DHT22;15704;48.834;8.736;2024-01-16T11:44:47;11.80;76.90
28484;DHT22;15704;48.834;8.736;2024-01-16T11:47:25;11.80;76.90
28484;DHT22;15704;48.834;8.736;2024-01-16T11:50:11;11.80;77.00
28484;DHT22;15704;48.834;8.736;2024-01-16T11:52:40;11.80;77.00
28484;DHT22;15704;48.834;8.736;2024-01-16T12:00:49;11.80;77.10
28484;DHT22;15704;48.834;8.736;2024-01-16T12:03:22;11.80;77.20
28484;DHT22;15704;48.834;8.736;2024-01-16T12:06:00;11.80;77.20
28484;DHT22;15704;48.834;8.736;2024-01-16T12:08:29;11.70;77.30
28484;DHT22;15704;48.834;8.736;2024-01-16T12:10:56;11.70;77.30
28484;DHT22;15704;48.834;8.736;2024-01-16T12:13:24;11.70;77.40
28484;DHT22;15704;48.834;8.736;2024-01-16T12:16:04;11.70;77.40
28484;DHT22;15704;48.834;8.736;2024-01-16T12:18:31;11.60;77.40
28484;DHT22;15704;48.834;8.736;2024-01-16T12:21:10;11.70;77.50
28484;DHT22;15704;48.834;8.736;2024-01-16T12:23:38;11.60;77.50
28484;DHT22;15704;48.834;8.736;2024-01-16T12:26:22;11.60;77.60
28484;DHT22;15704;48.834;8.736;2024-01-16T12:28:53;11.60;77.80
28484;DHT22;15704;48.834;8.736;2024-01-16T12:31:27;11.50;78.00
28484;DHT22;15704;48.834;8.736;2024-01-16T12:34:07;11.40;78.40
28484;DHT22;15704;48.834;8.736;2024-01-16T12:36:36;11.30;78.70
28484;DHT22;15704;48.834;8.736;2024-01-16T12:39:04;11.30;79.00
28484;DHT22;15704;48.834;8.736;2024-01-16T12:41:39;11.20;79.30
28484;DHT22;15704;48.834;8.736;2024-01-16T12:44:09;11.10;79.50
28484;DHT22;15704;48.834;8.736;2024-01-16T12:46:53;11.10;79.70
28484;DHT22;15704;48.834;8.736;2024-01-16T12:49:21;11.00;79.70
28484;DHT22;15704;48.834;8.736;2024-01-16T12:51:50;11.00;79.90
28484;DHT22;15704;48.834;8.736;2024-01-16T12:54:18;11.00;79.90
28484;DHT22;15704;48.834;8.736;2024-01-16T12:56:45;11.00;80.00
28484;DHT22;15704;48.834;8.736;2024-01-16T12:59:13;10.90;80.00
28484;DHT22;15704;48.834;8.736;2024-01-16T13:01:49;10.90;80.00
28484;DHT22;15704;48.834;8.736;2024-01-16T13:04:16;10.90;80.00
28484;DHT22;15704;48.834;8.736;2024-01-16T13:06:46;10.90;80.10
28484;DHT22;15704;48.834;8.736;2024-01-16T13:09:16;10.90;80.10
28484;DHT22;15704;48.834;8.736;2024-01-16T13:14:13;10.90;80.20
28484;DHT22;15704;48.834;8.736;2024-01-16T13:16:40;10.90;80.20
28484;DHT22;15704;48.834;8.736;2024-01-16T13:19:06;10.90;80.20
28484;DHT22;15704;48.834;8.736;2024-01-16T13:21:37;10.90;80.20
28484;DHT22;15704;48.834;8.736;2024-01-16T13:24:07;10.90;80.20
28484;DHT22;15704;48.834;8.736;2024-01-16T13:26:35;10.90;80.20
28484;DHT22;15704;48.834;8.736;2024-01-16T13:29:02;10.90;80.20
28484;DHT22;15704;48.834;8.736;2024-01-16T13:31:30;10.90;80.20
28484;DHT22;15704;48.834;8.736;2024-01-16T13:33:57;10.90;80.30
28484;DHT22;15704;48.834;8.736;2024-01-16T13:36:27;10.90;80.30
28484;DHT22;15704;48.834;8.736;2024-01-16T13:39:14;10.90;80.30
28484;DHT22;15704;48.834;8.736;2024-01-16T13:41:42;10.90;80.20
28484;DHT22;15704;48.834;8.736;2024-01-16T13:44:09;10.90;80.30
28484;DHT22;15704;48.834;8.736;2024-01-16T13:46:36;11.00;80.30
28484;DHT22;15704;48.834;8.736;2024-01-16T13:49:23;10.90;80.30
28484;DHT22;15704;48.834;8.736;2024-01-16T13:51:50;10.90;80.20
28484;DHT22;15704;48.834;8.736;2024-01-16T13:54:17;10.90;80.30
28484;DHT22;15704;48.834;8.736;2024-01-16T13:56:44;11.00;80.20
28484;DHT22;15704;48.834;8.736;2024-01-16T13:59:31;10.90;79.60
28484;DHT22;15704;48.834;8.736;2024-01-16T14:01:58;11.00;80.20
28484;DHT22;15704;48.834;8.736;2024-01-16T14:04:25;11.00;80.10
28484;DHT22;15704;48.834;8.736;2024-01-16T14:06:52;11.00;80.10
28484;DHT22;15704;48.834;8.736;2024-01-16T14:09:38;11.00;80.00
28484;DHT22;15704;48.834;8.736;2024-01-16T14:12:08;11.00;80.00
28484;DHT22;15704;48.834;8.736;2024-01-16T14:14:40;11.00;79.90
28484;DHT22;15704;48.834;8.736;2024-01-16T14:17:11;11.10;79.90
28484;DHT22;15704;48.834;8.736;2024-01-16T14:19:37;11.10;79.90
28484;DHT22;15704;48.834;8.736;2024-01-16T14:22:05;11.10;79.90
28484;DHT22;15704;48.834;8.736;2024-01-16T14:24:32;11.10;79.80
28484;DHT22;15704;48.834;8.736;2024-01-16T14:26:59;11.10;79.70
28484;DHT22;15704;48.834;8.736;2024-01-16T14:29:26;11.20;79.70
28484;DHT22;15704;48.834;8.736;2024-01-16T14:31:54;11.20;79.70
28484;DHT22;15704;48.834;8.736;2024-01-16T14:34:23;11.20;79.60
28484;DHT22;15704;48.834;8.736;2024-01-16T14:36:53;11.20;79.50
28484;DHT22;15704;48.834;8.736;2024-01-16T14:39:20;11.20;79.50
28484;DHT22;15704;48.834;8.736;2024-01-16T14:41:52;11.30;79.50
28484;DHT22;15704;48.834;8.736;2024-01-16T14:44:20;11.30;79.40
28484;DHT22;15704;48.834;8.736;2024-01-16T14:46:47;11.30;79.40
28484;DHT22;15704;48.834;8.736;2024-01-16T14:49:18;11.30;79.30
28484;DHT22;15704;48.834;8.736;2024-01-16T14:51:45;11.30;79.30
28484;DHT22;15704;48.834;8.736;2024-01-16T14:54:13;11.30;79.30
28484;DHT22;15704;48.834;8.736;2024-01-16T14:56:40;11.30;79.20
28484;DHT22;15704;48.834;8.736;2024-01-16T14:59:07;11.40;79.20
28484;DHT22;15704;48.834;8.736;2024-01-16T15:01:41;11.40;79.10
28484;DHT22;15704;48.834;8.736;2024-01-16T15:04:07;11.40;79.00
28484;DHT22;15704;48.834;8.736;2024-01-16T15:06:34;11.40;79.00
28484;DHT22;15704;48.834;8.736;2024-01-16T15:09:02;11.40;78.90
28484;DHT22;15704;48.834;8.736;2024-01-16T15:11:29;11.40;78.90
28484;DHT22;15704;48.834;8.736;2024-01-16T15:13:55;11.50;78.90
28484;DHT22;15704;48.834;8.736;2024-01-16T15:16:24;11.50;78.90
28484;DHT22;15704;48.834;8.736;2024-01-16T15:18:51;11.50;78.80
28484;DHT22;15704;48.834;8.736;2024-01-16T15:21:19;11.50;78.70
28484;DHT22;15704;48.834;8.736;2024-01-16T15:23:46;11.50;79.40
28484;DHT22;15704;48.834;8.736;2024-01-16T15:26:12;11.50;78.70
28484;DHT22;15704;48.834;8.736;2024-01-16T15:28:46;11.50;78.70
28484;DHT22;15704;48.834;8.736;2024-01-16T15:31:16;11.50;78.60
28484;DHT22;15704;48.834;8.736;2024-01-16T15:33:43;11.50;78.60
28484;DHT22;15704;48.834;8.736;2024-01-16T15:36:10;11.50;78.50
28484;DHT22;15704;48.834;8.736;2024-01-16T15:38:37;11.60;78.60
28484;DHT22;15704;48.834;8.736;2024-01-16T15:41:04;11.60;78.50
28484;DHT22;15704;48.834;8.736;2024-01-16T15:43:31;11.60;78.40
28484;DHT22;15704;48.834;8.736;2024-01-16T15:45:57;11.60;78.40
28484;DHT22;15704;48.834;8.736;2024-01-16T15:48:24;11.60;78.70
28484;DHT22;15704;48.834;8.736;2024-01-16T15:50:54;11.60;78.30
28484;DHT22;15704;48.834;8.736;2024-01-16T15:53:21;11.60;78.20